Terminal Aerodrome Forecast
Issued by NWS

Home | Current Version | Previous Version | Graphics & Text | Print | Product List | Glossary On
Versions: 1 2 3 4 5 6 7 8 9 10 11 12 13 14 15 16 17
000
FTUS43 KGRB 241100
TAFAUW
TAF
KAUW 241138Z 2412/2512 12010KT 6SM -SHRA SCT025 OVC035
     FM241400 11013G22KT 5SM -RA BR BKN012 OVC020
     FM241900 12012G20KT 2SM -RA BR BKN007 OVC012
     FM250100 12007KT 3SM -RA BR BKN007 OVC012
     FM250800 29005KT 6SM -SHRA BR SCT012 BKN020=

USA.gov is the U.S. government's official web portal to all federal, state and local government web resources and services.